York, Wisconsin
Current Conditions -  °F | °C
As of 5:54 PM on Sunday 21 Dec 2014 (Local Time) from KMFI Reporting Station
Haze Haze  
Wind Chill: 25°   Ceiling: 300
Heat Index: 34°   Visibility: 1.5mi
Dew Point: 32°   Wind: 13mph
Humidity: 92%   Direction: 160°SSE
Pressure: 29.87"   Gusts: NA
Location:  44.5388°N, 90.4382°W
Report Text: KMFI 212354Z AUTO 16011KT 1 1/2SM BR OVC003 01/00 A2987 RMK AO2 SLP129 60000 I6000 T00110000 10011 20006 58004
Loading
Personal Weather Stations






























Interactive Weather Map New forecast layout! Learn more

10-Day Weather Forecast

Advertisements
Track Severe Weather on mobile